Williamsport Regional Airport
KIPT : now visible

Airfield :











YOU CAN JOIN US ON...

 
LOGIN :

Register | Disclaimer

   EN    FR    IT 

 









Legend :    VFR   Marginal VFR   IFR   Intensive IFR   Very Intensive IFR
Visi :
Ceiling :
>= 8 km
>= 3000ft
5 to 8 km
1000 to 3000 ft
1500m to 5 km
500 to 1000 ft
800 to 1500m
200 to 500 ft
< 800m
< 200 ft
Symbols :   Thunderstorms  Fog  Heavy snow  Heavy precipitations  Wind > 20 kt






- Airport Elevation : 529 ft
- IATA code : IPT


KIPT - Williamsport Regional

CURRENT METAR :
  • 081854Z 30016G20KT 10SM FEW075 BKN095 21/04 A2955 RMK AO2 SLP007 T02060044

EXPIRED METARs :
  • 081754Z 29011G18KT 10SM BKN060 21/07 A2955 RMK AO2 SLP005 T02060072 10217 20122 56007
  • 081654Z 29009KT 10SM BKN050 BKN065 19/08 A2955 RMK AO2 SLP006 T01940078

TAF KIPT
Valid from the 08 at 18:00 until the 09 at 18:00 UTC


081753Z 0818/0918 30009KT P6SM BKN050
FM081900 29010G19KT P6SM SCT060
FM082300 VRB05KT P6SM SKC
FM091000 13012KT P6SM -SHRA OVC050



MET'MAP, your aeronautical weather chart ! - Copyright ORBIFLY December 2007 - Disclaimer

ORBIFLY MET'MAP TEAM :

Programming & Development : Alexandra Zaïnal
Concept & original design : Baudouin d'Aumeries
Assistance for programming : Marc-Olivier Méhu
Technical & hardware support : Manuel Goepfert

Contact : metmap@orbifly.com




SOURCES & CREDITS :

   NOAA       Earth
Advisory